Terminal Aerodrome Forecast
Issued by NWS Boston, MA

Home | Current Version | Previous Version | Text Only | Print | Product List | Glossary On
Versions: 1 2 3 4 5 6 7 8 9 10 11 12 13 14 15 16 17 18 19 20 21 22 23 24 25 26 27 28 29 30 31 32 33 34 35 36 37 38 39 40 41 42 43 44
000
FTUS41 KBOX 221239 AAA
TAFBDL
TAF AMD
KBDL 221239Z 2213/2318 21005KT 4SM BR BKN006 OVC250
     FM221330 19008KT 6SM BR SCT006
     FM221700 20012G22KT P6SM SCT050
     FM230200 19012G20KT P6SM VCSH BKN035
     FM231100 28006KT 4SM BR VCSH BKN045
     FM231300 30006KT P6SM VCSH BKN040
     FM231500 30010KT P6SM SCT120=

USA.gov is the U.S. government's official web portal to all federal, state and local government web resources and services.